createdAt,value
2019-04-27T00:00:44.232Z,0.00
2019-04-27T00:01:45.297Z,0.00
2019-04-27T00:02:44.179Z,0.00
2019-04-27T00:03:44.865Z,0.00
2019-04-27T00:04:44.125Z,0.00
2019-04-27T00:05:44.109Z,0.00
2019-04-27T00:06:46.392Z,0.00
2019-04-27T00:07:44.052Z,0.00
2019-04-27T00:08:44.018Z,0.00
2019-04-27T00:09:50.313Z,0.00
2019-04-27T00:10:43.965Z,0.00
2019-04-27T00:11:45.464Z,0.00
2019-04-27T00:12:43.913Z,0.00
2019-04-27T00:13:44.020Z,0.00
2019-04-27T00:14:43.979Z,0.00
2019-04-27T00:15:43.991Z,0.00
2019-04-27T00:16:46.912Z,0.00
2019-04-27T00:17:48.665Z,0.00
2019-04-27T00:18:45.457Z,0.00
2019-04-27T00:19:43.926Z,0.00
2019-04-27T00:20:43.699Z,0.00
2019-04-27T00:21:43.672Z,0.00
2019-04-27T00:22:43.659Z,0.00
2019-04-27T00:23:43.623Z,0.00
2019-04-27T00:24:44.160Z,0.00
2019-04-27T00:25:43.831Z,0.00
2019-04-27T00:26:45.560Z,0.00
2019-04-27T00:27:43.671Z,0.00
2019-04-27T00:28:43.520Z,0.00
2019-04-27T00:29:43.462Z,0.00
2019-04-27T00:30:43.868Z,0.00
2019-04-27T00:31:43.586Z,0.00
2019-04-27T00:32:43.414Z,0.00
2019-04-27T00:33:43.556Z,0.00
2019-04-27T00:34:43.328Z,0.00
2019-04-27T00:35:43.834Z,0.00
2019-04-27T00:36:43.592Z,0.00
2019-04-27T00:37:44.904Z,0.00
2019-04-27T00:38:43.632Z,0.00
2019-04-27T00:39:43.402Z,0.00
2019-04-27T00:40:43.683Z,0.00
2019-04-27T00:41:43.141Z,0.00
2019-04-27T00:42:44.148Z,0.00
2019-04-27T00:43:44.466Z,0.00
2019-04-27T00:44:43.104Z,0.00
2019-04-27T00:45:43.668Z,0.00
2019-04-27T00:46:43.206Z,0.00
2019-04-27T00:47:54.570Z,0.00
2019-04-27T00:48:43.364Z,0.00
2019-04-27T00:49:44.320Z,0.00
2019-04-27T00:50:43.866Z,0.00
2019-04-27T00:51:43.393Z,0.00
2019-04-27T00:52:43.025Z,0.00
2019-04-27T00:53:43.576Z,0.00
2019-04-27T00:54:44.120Z,0.00
2019-04-27T00:55:43.513Z,0.00
2019-04-27T00:56:42.988Z,0.00
2019-04-27T00:57:43.513Z,0.00
2019-04-27T00:58:43.044Z,0.00
2019-04-27T00:59:43.143Z,0.00
2019-04-27T01:00:44.008Z,0.00
2019-04-27T01:01:43.588Z,0.00
2019-04-27T01:02:43.558Z,0.00
2019-04-27T01:03:43.114Z,0.00
2019-04-27T01:04:42.866Z,0.00
2019-04-27T01:05:43.067Z,0.00
2019-04-27T01:06:43.760Z,0.00
2019-04-27T01:07:43.434Z,0.00
2019-04-27T01:08:42.772Z,0.00
2019-04-27T01:09:42.883Z,0.00
2019-04-27T01:10:43.556Z,0.00
2019-04-27T01:11:43.415Z,0.00
2019-04-27T01:12:42.930Z,0.00
2019-04-27T01:13:43.440Z,0.00
2019-04-27T01:14:42.769Z,0.00
2019-04-27T01:15:43.003Z,0.00
2019-04-27T01:16:42.203Z,0.00
2019-04-27T01:17:42.175Z,0.00
2019-04-27T01:18:42.149Z,0.00
2019-04-27T01:19:42.123Z,0.00
2019-04-27T01:20:42.094Z,0.00
2019-04-27T01:21:42.069Z,0.00
2019-04-27T01:22:42.042Z,0.00
2019-04-27T01:23:42.014Z,0.00
2019-04-27T01:24:41.988Z,0.00
2019-04-27T01:25:41.961Z,0.00
2019-04-27T01:26:41.939Z,0.00
2019-04-27T01:27:41.908Z,0.00
2019-04-27T01:28:41.881Z,0.00
2019-04-27T01:29:41.855Z,0.00
2019-04-27T01:30:41.828Z,0.00
2019-04-27T01:31:41.800Z,0.00
2019-04-27T01:32:41.772Z,0.00
2019-04-27T01:33:41.747Z,0.00
2019-04-27T01:34:41.720Z,0.00
2019-04-27T01:35:41.693Z,0.00
2019-04-27T01:36:41.666Z,0.00
2019-04-27T01:37:41.639Z,0.00
2019-04-27T01:38:41.613Z,0.00
2019-04-27T01:39:41.592Z,0.00
2019-04-27T01:40:41.560Z,0.00
2019-04-27T01:41:41.537Z,0.00
2019-04-27T01:42:41.510Z,0.00
2019-04-27T01:43:41.479Z,0.00
2019-04-27T01:44:41.455Z,0.00
2019-04-27T01:45:41.435Z,0.00
2019-04-27T01:46:41.399Z,0.00
2019-04-27T01:47:41.373Z,0.00
2019-04-27T01:48:41.344Z,0.00
2019-04-27T01:49:41.318Z,0.00
2019-04-27T01:50:41.294Z,0.00
2019-04-27T01:51:41.263Z,0.00
2019-04-27T01:52:41.238Z,0.00
2019-04-27T01:53:41.211Z,0.00
2019-04-27T01:54:41.222Z,0.00
2019-04-27T01:55:41.158Z,0.00
2019-04-27T01:56:41.130Z,0.00
2019-04-27T01:57:41.104Z,0.00
2019-04-27T01:58:41.075Z,0.00
2019-04-27T01:59:41.049Z,0.00
2019-04-27T02:00:41.022Z,0.00
2019-04-27T02:01:40.996Z,0.00
2019-04-27T02:02:40.971Z,0.00
2019-04-27T02:03:40.943Z,0.00
2019-04-27T02:04:40.917Z,0.00
2019-04-27T02:05:40.889Z,0.00
2019-04-27T02:06:40.862Z,0.00
2019-04-27T02:07:40.835Z,0.00
2019-04-27T02:08:40.810Z,0.00
2019-04-27T02:09:40.782Z,0.00
2019-04-27T02:10:40.756Z,0.00
2019-04-27T02:11:40.728Z,0.00
2019-04-27T02:12:43.654Z,0.00
2019-04-27T02:13:40.674Z,0.00
2019-04-27T02:14:40.650Z,0.00
2019-04-27T02:15:40.622Z,0.00
2019-04-27T02:16:40.595Z,0.00
2019-04-27T02:17:40.569Z,0.00
2019-04-27T02:18:40.543Z,0.00
2019-04-27T02:19:40.515Z,0.00
2019-04-27T02:20:40.487Z,0.00
2019-04-27T02:21:40.462Z,0.00
2019-04-27T02:22:40.437Z,0.00
2019-04-27T02:23:40.408Z,0.00
2019-04-27T02:24:40.383Z,0.00
2019-04-27T02:25:40.356Z,0.00
2019-04-27T02:26:40.329Z,0.00
2019-04-27T02:27:40.303Z,0.00
2019-04-27T02:28:40.275Z,0.00
2019-04-27T02:29:40.249Z,0.00
2019-04-27T02:30:40.906Z,0.00
2019-04-27T02:31:40.486Z,0.00
2019-04-27T02:32:40.172Z,0.00
2019-04-27T02:33:40.499Z,0.00
2019-04-27T02:34:40.118Z,0.00
2019-04-27T02:35:41.941Z,0.00
2019-04-27T02:36:40.064Z,0.00
2019-04-27T02:37:40.486Z,0.00
2019-04-27T02:38:40.613Z,0.00
2019-04-27T02:39:40.111Z,0.00
2019-04-27T02:40:42.605Z,0.00
2019-04-27T02:41:40.208Z,0.00
2019-04-27T02:42:42.211Z,0.00
2019-04-27T02:43:40.125Z,0.00
2019-04-27T02:44:40.698Z,0.00
2019-04-27T02:45:40.411Z,0.00
2019-04-27T02:46:39.835Z,0.00
2019-04-27T02:47:40.778Z,0.00
2019-04-27T02:48:55.604Z,0.00
2019-04-27T02:49:40.650Z,0.00
2019-04-27T02:50:40.097Z,0.00
2019-04-27T02:51:40.574Z,0.00
2019-04-27T02:52:40.487Z,0.00
2019-04-27T02:53:39.612Z,0.00
2019-04-27T02:54:40.083Z,0.00
2019-04-27T02:55:39.893Z,0.00
2019-04-27T02:56:40.518Z,0.00
2019-04-27T02:57:40.004Z,0.00
2019-04-27T02:58:40.657Z,0.00
2019-04-27T02:59:40.032Z,0.00
2019-04-27T03:00:40.179Z,0.00
2019-04-27T03:01:45.664Z,0.00
2019-04-27T03:02:40.228Z,0.00
2019-04-27T03:03:41.178Z,0.00
2019-04-27T03:04:40.139Z,0.00
2019-04-27T03:05:40.088Z,0.00
2019-04-27T03:06:39.962Z,0.00
2019-04-27T03:07:40.552Z,0.00
2019-04-27T03:08:42.265Z,0.00
2019-04-27T03:09:39.676Z,0.00
2019-04-27T03:10:40.035Z,0.00
2019-04-27T03:11:39.729Z,0.00
2019-04-27T03:12:41.981Z,0.00
2019-04-27T03:13:40.509Z,0.00
2019-04-27T03:14:40.325Z,0.00
2019-04-27T03:15:40.279Z,0.00
2019-04-27T03:16:39.564Z,4.00
2019-04-27T03:17:39.698Z,4.00
2019-04-27T03:18:40.354Z,4.00
2019-04-27T03:19:39.792Z,4.00
2019-04-27T03:20:40.319Z,4.00
2019-04-27T03:21:39.563Z,8.00
2019-04-27T03:22:39.790Z,8.00
2019-04-27T03:23:41.031Z,8.00
2019-04-27T03:24:39.454Z,8.00
2019-04-27T03:25:40.154Z,8.00
2019-04-27T03:26:39.044Z,12.00
2019-04-27T03:27:40.523Z,16.00
2019-04-27T03:28:40.167Z,16.00
2019-04-27T03:29:38.969Z,20.00
2019-04-27T03:30:42.633Z,20.00
2019-04-27T03:31:42.542Z,28.00
2019-04-27T03:32:42.537Z,32.00
2019-04-27T03:33:42.675Z,36.00
2019-04-27T03:34:41.839Z,40.00
2019-04-27T03:35:42.736Z,48.00
2019-04-27T03:36:39.581Z,56.00
2019-04-27T03:37:40.361Z,60.00
2019-04-27T03:38:39.661Z,68.00
2019-04-27T03:39:39.648Z,72.00
2019-04-27T03:40:40.348Z,80.00
2019-04-27T03:41:38.327Z,88.00
2019-04-27T03:42:40.323Z,100.00
2019-04-27T03:43:40.257Z,108.00
2019-04-27T03:44:39.883Z,116.00
2019-04-27T03:45:39.991Z,128.00
2019-04-27T03:46:39.709Z,140.00
2019-04-27T03:47:40.762Z,152.00
2019-04-27T03:48:40.621Z,164.00
2019-04-27T03:49:41.429Z,184.00
2019-04-27T03:50:39.830Z,200.00
2019-04-27T03:51:40.291Z,220.00
2019-04-27T03:52:39.717Z,240.00
2019-04-27T03:53:39.659Z,264.00
2019-04-27T03:54:40.054Z,288.00
2019-04-27T03:55:39.790Z,312.00
2019-04-27T03:56:39.583Z,332.00
2019-04-27T03:57:40.266Z,360.00
2019-04-27T03:58:39.622Z,380.00
2019-04-27T03:59:40.386Z,408.00
2019-04-27T04:00:39.882Z,436.00
2019-04-27T04:01:39.604Z,468.00
2019-04-27T04:02:40.060Z,500.00
2019-04-27T04:03:39.387Z,540.00
2019-04-27T04:04:40.374Z,584.00
2019-04-27T04:05:39.831Z,628.00
2019-04-27T04:06:39.950Z,672.00
2019-04-27T04:07:39.808Z,724.00
2019-04-27T04:08:39.718Z,780.00
2019-04-27T04:09:39.984Z,836.00
2019-04-27T04:10:39.105Z,896.00
2019-04-27T04:11:39.564Z,964.00
2019-04-27T04:12:39.775Z,1044.00
2019-04-27T04:13:39.644Z,1128.00
2019-04-27T04:14:37.455Z,1212.00
2019-04-27T04:15:39.683Z,1296.00
2019-04-27T04:16:39.389Z,1388.00
2019-04-27T04:17:37.356Z,1488.00
2019-04-27T04:18:39.640Z,1596.00
2019-04-27T04:19:51.063Z,1704.00
2019-04-27T04:20:37.275Z,1800.00
2019-04-27T04:21:39.687Z,1884.00
2019-04-27T04:22:37.222Z,1956.00
2019-04-27T04:23:37.204Z,2040.00
2019-04-27T04:24:39.564Z,2136.00
2019-04-27T04:25:37.140Z,2236.00
2019-04-27T04:26:39.948Z,2336.00
2019-04-27T04:27:37.085Z,2404.00
2019-04-27T04:28:37.057Z,2424.00
2019-04-27T04:29:39.329Z,2432.00
2019-04-27T04:30:37.005Z,2396.00
2019-04-27T04:31:36.978Z,2364.00
2019-04-27T04:32:39.271Z,2380.00
2019-04-27T04:33:36.923Z,2436.00
2019-04-27T04:34:36.898Z,2472.00
2019-04-27T04:35:39.495Z,2512.00
2019-04-27T04:36:36.849Z,2564.00
2019-04-27T04:37:39.290Z,2628.00
2019-04-27T04:38:36.789Z,2736.00
2019-04-27T04:39:36.762Z,2896.00
2019-04-27T04:40:36.733Z,3008.00
2019-04-27T04:41:36.708Z,3036.00
2019-04-27T04:42:36.680Z,3196.00
2019-04-27T04:43:36.660Z,3528.00
2019-04-27T04:44:36.625Z,3696.00
2019-04-27T04:45:36.598Z,3888.00
2019-04-27T04:46:36.572Z,4192.00
2019-04-27T04:47:36.544Z,4464.00
2019-04-27T04:48:36.517Z,4600.00
2019-04-27T04:49:36.494Z,4752.00
2019-04-27T04:50:36.463Z,4964.00
2019-04-27T04:51:36.436Z,5192.00
2019-04-27T04:52:36.412Z,5396.00
2019-04-27T04:53:36.383Z,5524.00
2019-04-27T04:54:36.357Z,5680.00
2019-04-27T04:55:36.329Z,5788.00
2019-04-27T04:56:36.302Z,5856.00
2019-04-27T04:57:36.275Z,5868.00
2019-04-27T04:58:36.249Z,5928.00
2019-04-27T04:59:36.223Z,5972.00
2019-04-27T05:00:36.195Z,5992.00
2019-04-27T05:01:36.172Z,6012.00
2019-04-27T05:02:36.142Z,5992.00
2019-04-27T05:03:36.113Z,5976.00
2019-04-27T05:04:36.087Z,5980.00
2019-04-27T05:05:36.059Z,6032.00
2019-04-27T05:06:36.033Z,6196.00
2019-04-27T05:07:36.006Z,6456.00
2019-04-27T05:08:35.982Z,6836.00
2019-04-27T05:09:35.953Z,7320.00
2019-04-27T05:10:35.926Z,7832.00
2019-04-27T05:11:35.899Z,8420.00
2019-04-27T05:12:35.875Z,9020.00
2019-04-27T05:13:35.847Z,9548.00
2019-04-27T05:14:35.821Z,9936.00
2019-04-27T05:15:35.795Z,10188.00
2019-04-27T05:16:35.767Z,10264.00
2019-04-27T05:17:35.742Z,10060.00
2019-04-27T05:18:35.714Z,9964.00
2019-04-27T05:19:35.687Z,9652.00
2019-04-27T05:20:35.661Z,9536.00
2019-04-27T05:21:35.636Z,9384.00
2019-04-27T05:22:35.609Z,9168.00
2019-04-27T05:23:35.584Z,8808.00
2019-04-27T05:24:35.556Z,8412.00
2019-04-27T05:25:35.529Z,8264.00
2019-04-27T05:26:35.505Z,8268.00
2019-04-27T05:27:35.478Z,8424.00
2019-04-27T05:28:35.452Z,8824.00
2019-04-27T05:29:35.427Z,9160.00
2019-04-27T05:30:35.402Z,9468.00
2019-04-27T05:31:35.374Z,10000.00
2019-04-27T05:32:35.348Z,10800.00
2019-04-27T05:33:35.323Z,12304.00
2019-04-27T05:34:35.297Z,12076.00
2019-04-27T05:35:35.272Z,13300.00
2019-04-27T05:36:35.245Z,14212.00
2019-04-27T05:37:35.221Z,16256.00
2019-04-27T05:38:35.194Z,16608.00
2019-04-27T05:39:35.167Z,14440.00
2019-04-27T05:40:35.142Z,15024.00
2019-04-27T05:41:37.403Z,14480.00
2019-04-27T05:42:35.091Z,14980.00
2019-04-27T05:43:35.064Z,15608.00
2019-04-27T05:44:35.044Z,16992.00
2019-04-27T05:45:35.017Z,18464.00
2019-04-27T05:46:35.622Z,18944.00
2019-04-27T05:47:34.966Z,18752.00
2019-04-27T05:48:34.941Z,18976.00
2019-04-27T05:49:36.251Z,20064.00
2019-04-27T05:50:38.830Z,19840.00
2019-04-27T05:51:37.305Z,20352.00
2019-04-27T05:52:34.844Z,22272.00
2019-04-27T05:53:34.819Z,21984.00
2019-04-27T05:54:34.792Z,21216.00
2019-04-27T05:55:34.768Z,21152.00
2019-04-27T05:56:34.745Z,21664.00
2019-04-27T05:57:34.732Z,20448.00
2019-04-27T05:58:34.699Z,19488.00
2019-04-27T05:59:34.672Z,18304.00
2019-04-27T06:00:34.652Z,17184.00
2019-04-27T06:01:34.625Z,16300.00
2019-04-27T06:02:34.603Z,15816.00
2019-04-27T06:03:34.577Z,15500.00
2019-04-27T06:04:34.553Z,15384.00
2019-04-27T06:05:34.531Z,15288.00
2019-04-27T06:06:34.507Z,15156.00
2019-04-27T06:07:34.484Z,15188.00
2019-04-27T06:08:34.459Z,15416.00
2019-04-27T06:09:34.436Z,15952.00
2019-04-27T06:10:34.413Z,16992.00
2019-04-27T06:11:34.389Z,17888.00
2019-04-27T06:12:34.364Z,18464.00
2019-04-27T06:13:34.342Z,18752.00
2019-04-27T06:14:34.318Z,18976.00
2019-04-27T06:15:34.294Z,19136.00
2019-04-27T06:16:34.270Z,19232.00
2019-04-27T06:17:34.248Z,19328.00
2019-04-27T06:18:34.224Z,19168.00
2019-04-27T06:19:34.201Z,19008.00
2019-04-27T06:20:34.177Z,18720.00
2019-04-27T06:21:34.155Z,18432.00
2019-04-27T06:22:34.131Z,18080.00
2019-04-27T06:23:34.108Z,17792.00
2019-04-27T06:24:34.083Z,17664.00
2019-04-27T06:25:34.062Z,17760.00
2019-04-27T06:26:34.038Z,18016.00
2019-04-27T06:27:34.014Z,18432.00
2019-04-27T06:28:33.991Z,18752.00
2019-04-27T06:29:33.969Z,18816.00
2019-04-27T06:30:33.947Z,18816.00
2019-04-27T06:31:33.921Z,18880.00
2019-04-27T06:32:33.900Z,19040.00
2019-04-27T06:33:34.458Z,19424.00
2019-04-27T06:34:33.855Z,20800.00
2019-04-27T06:35:33.831Z,23968.00
2019-04-27T06:36:33.806Z,24640.00
2019-04-27T06:37:33.782Z,24832.00
2019-04-27T06:38:33.765Z,24288.00
2019-04-27T06:39:33.736Z,22272.00
2019-04-27T06:40:35.452Z,21824.00
2019-04-27T06:41:33.701Z,20960.00
2019-04-27T06:42:33.676Z,20608.00
2019-04-27T06:43:33.644Z,20576.00
2019-04-27T06:44:33.629Z,22624.00
2019-04-27T06:45:33.600Z,21760.00
2019-04-27T06:46:33.578Z,21440.00
2019-04-27T06:47:33.555Z,19872.00
2019-04-27T06:48:33.534Z,20960.00
2019-04-27T06:49:33.510Z,23168.00
2019-04-27T06:50:33.491Z,25472.00
2019-04-27T06:51:33.466Z,28416.00
2019-04-27T06:52:33.441Z,26912.00
2019-04-27T06:53:33.420Z,21504.00
2019-04-27T06:54:33.398Z,26368.00
2019-04-27T06:55:33.375Z,23360.00
2019-04-27T06:56:33.353Z,23808.00
2019-04-27T06:57:33.331Z,23168.00
2019-04-27T06:58:33.308Z,19808.00
2019-04-27T06:59:33.285Z,20128.00
2019-04-27T07:00:33.265Z,24544.00
2019-04-27T07:01:33.243Z,21952.00
2019-04-27T07:02:33.221Z,22368.00
2019-04-27T07:03:33.199Z,25504.00
2019-04-27T07:04:33.179Z,31744.00
2019-04-27T07:05:33.159Z,34240.00
2019-04-27T07:06:33.134Z,32480.00
2019-04-27T07:07:33.131Z,28448.00
2019-04-27T07:08:33.089Z,31328.00
2019-04-27T07:09:33.068Z,35552.00
2019-04-27T07:10:33.048Z,43200.00
2019-04-27T07:11:33.025Z,49088.00
2019-04-27T07:12:33.003Z,51968.00
2019-04-27T07:13:32.982Z,48352.00
2019-04-27T07:14:32.962Z,45728.00
2019-04-27T07:15:32.944Z,47552.00
2019-04-27T07:16:32.921Z,46688.00
2019-04-27T07:17:32.901Z,49728.00
2019-04-27T07:18:32.880Z,51808.00
2019-04-27T07:19:32.859Z,40512.00
2019-04-27T07:20:32.840Z,36832.00
2019-04-27T07:21:32.822Z,49568.00
2019-04-27T07:22:32.801Z,42496.00
2019-04-27T07:23:32.780Z,35168.00
2019-04-27T07:24:32.762Z,35136.00
2019-04-27T07:25:32.743Z,45984.00
2019-04-27T07:26:32.725Z,46560.00
2019-04-27T07:27:32.704Z,39872.00
2019-04-27T07:28:32.687Z,45088.00
2019-04-27T07:29:32.667Z,50944.00
2019-04-27T07:30:32.649Z,56224.00
2019-04-27T07:31:32.633Z,59200.00
2019-04-27T07:32:32.611Z,59968.00
2019-04-27T07:33:32.594Z,57888.00
2019-04-27T07:34:32.577Z,55232.00
2019-04-27T07:35:32.558Z,55680.00
2019-04-27T07:36:32.540Z,58720.00
2019-04-27T07:37:32.520Z,63296.00
2019-04-27T07:38:32.504Z,67520.00
2019-04-27T07:39:32.487Z,69184.00
2019-04-27T07:40:32.476Z,70048.00
2019-04-27T07:41:32.452Z,69568.00
2019-04-27T07:42:34.088Z,67264.00
2019-04-27T07:43:32.418Z,64640.00
2019-04-27T07:44:32.400Z,63200.00
2019-04-27T07:45:32.385Z,64384.00
2019-04-27T07:46:32.369Z,66720.00
2019-04-27T07:47:32.354Z,69792.00
2019-04-27T07:48:32.334Z,69408.00
2019-04-27T07:49:32.317Z,71072.00
2019-04-27T07:50:32.302Z,72160.00
2019-04-27T07:51:34.412Z,70080.00
2019-04-27T07:52:32.267Z,65888.00
2019-04-27T07:53:32.251Z,67264.00
2019-04-27T07:54:32.236Z,69024.00
2019-04-27T07:55:32.218Z,71968.00
2019-04-27T07:56:32.202Z,56192.00
2019-04-27T07:57:32.186Z,50592.00
2019-04-27T07:58:32.171Z,61056.00
2019-04-27T07:59:32.154Z,70528.00
2019-04-27T08:00:32.139Z,63904.00
2019-04-27T08:01:32.123Z,64192.00
2019-04-27T08:02:32.108Z,64192.00
2019-04-27T08:03:32.092Z,58848.00
2019-04-27T08:04:32.076Z,61984.00
2019-04-27T08:05:32.061Z,64320.00
2019-04-27T08:06:32.044Z,46624.00
2019-04-27T08:07:32.033Z,38944.00
2019-04-27T08:08:32.013Z,34272.00
2019-04-27T08:09:31.998Z,47136.00
2019-04-27T08:10:31.981Z,36640.00
2019-04-27T08:11:31.964Z,59904.00
2019-04-27T08:12:31.951Z,59520.00
2019-04-27T08:13:31.933Z,57440.00
2019-04-27T08:14:31.915Z,56064.00
2019-04-27T08:15:31.899Z,50592.00
2019-04-27T08:16:31.885Z,46432.00
2019-04-27T08:17:31.868Z,43584.00
2019-04-27T08:18:31.852Z,52768.00
2019-04-27T08:19:31.834Z,48896.00
2019-04-27T08:20:31.818Z,49664.00
2019-04-27T08:21:43.110Z,51552.00
2019-04-27T08:22:31.783Z,45216.00
2019-04-27T08:23:31.766Z,47392.00
2019-04-27T08:24:31.749Z,47744.00
2019-04-27T08:25:31.733Z,55488.00
2019-04-27T08:26:31.716Z,49152.00
2019-04-27T08:27:31.700Z,52160.00
2019-04-27T08:28:31.680Z,46752.00
2019-04-27T08:29:33.013Z,55232.00
2019-04-27T08:30:31.645Z,54816.00
2019-04-27T08:31:31.627Z,58688.00
2019-04-27T08:32:31.611Z,63584.00
2019-04-27T08:33:31.594Z,64480.00
2019-04-27T08:34:31.575Z,69088.00
2019-04-27T08:35:32.768Z,70976.00
2019-04-27T08:36:31.540Z,66880.00
2019-04-27T08:37:31.524Z,58880.00
2019-04-27T08:38:31.506Z,52512.00
2019-04-27T08:39:31.486Z,40064.00
2019-04-27T08:40:31.480Z,42816.00
2019-04-27T08:41:31.452Z,76352.00
2019-04-27T08:42:31.434Z,77248.00
2019-04-27T08:43:31.417Z,69504.00
2019-04-27T08:44:31.791Z,55744.00
2019-04-27T08:45:31.382Z,74016.00
2019-04-27T08:46:31.364Z,78400.00
2019-04-27T08:47:31.346Z,79264.00
2019-04-27T08:48:36.910Z,81248.00
2019-04-27T08:49:31.314Z,81184.00
2019-04-27T08:50:31.296Z,81280.00
2019-04-27T08:51:31.281Z,73984.00
2019-04-27T08:52:31.264Z,72736.00
2019-04-27T08:53:31.248Z,71200.00
2019-04-27T08:54:31.231Z,70272.00
2019-04-27T08:55:31.214Z,69984.00
2019-04-27T08:56:31.201Z,70976.00
2019-04-27T08:57:31.183Z,72768.00
2019-04-27T08:58:31.167Z,74688.00
2019-04-27T08:59:31.150Z,73888.00
2019-04-27T09:00:31.135Z,71904.00
2019-04-27T09:01:31.119Z,69600.00
2019-04-27T09:02:41.743Z,64992.00
2019-04-27T09:03:31.087Z,59776.00
2019-04-27T09:04:31.070Z,53728.00
2019-04-27T09:05:31.056Z,56832.00
2019-04-27T09:06:31.241Z,58912.00
2019-04-27T09:07:31.805Z,64224.00
2019-04-27T09:08:31.008Z,67808.00
2019-04-27T09:09:30.993Z,71776.00
2019-04-27T09:10:30.977Z,72608.00
2019-04-27T09:11:30.962Z,73120.00
2019-04-27T09:12:30.944Z,74144.00
2019-04-27T09:13:30.927Z,73760.00
2019-04-27T09:14:30.911Z,72128.00
2019-04-27T09:15:30.895Z,72384.00
2019-04-27T09:16:30.879Z,69408.00
2019-04-27T09:17:31.092Z,65120.00
2019-04-27T09:18:32.395Z,64608.00
2019-04-27T09:19:30.832Z,63616.00
2019-04-27T09:20:30.816Z,58176.00
2019-04-27T09:21:30.802Z,65632.00
2019-04-27T09:22:30.787Z,71040.00
2019-04-27T09:23:30.772Z,71072.00
2019-04-27T09:24:30.754Z,74208.00
2019-04-27T09:25:30.738Z,64512.00
2019-04-27T09:26:30.724Z,71008.00
2019-04-27T09:27:30.707Z,72320.00
2019-04-27T09:28:30.693Z,78336.00
2019-04-27T09:29:30.677Z,77920.00
2019-04-27T09:30:30.662Z,72000.00
2019-04-27T09:31:30.647Z,71552.00
2019-04-27T09:32:30.631Z,73888.00
2019-04-27T09:33:30.616Z,77504.00
2019-04-27T09:34:30.602Z,79712.00
2019-04-27T09:35:30.585Z,79776.00
2019-04-27T09:36:30.569Z,81824.00
2019-04-27T09:37:30.554Z,83328.00
2019-04-27T09:38:30.539Z,85792.00
2019-04-27T09:39:30.523Z,84960.00
2019-04-27T09:40:30.507Z,83776.00
2019-04-27T09:41:30.493Z,83744.00
2019-04-27T09:42:30.477Z,22528.00
2019-04-27T09:43:30.461Z,62304.00
2019-04-27T09:44:30.445Z,41248.00
2019-04-27T09:45:30.439Z,28096.00
2019-04-27T09:46:30.433Z,87616.00
2019-04-27T09:47:30.399Z,82432.00
2019-04-27T09:48:30.415Z,85408.00
2019-04-27T09:49:30.364Z,85728.00
2019-04-27T09:50:30.352Z,86272.00
2019-04-27T09:51:30.333Z,84416.00
2019-04-27T09:52:30.317Z,85152.00
2019-04-27T09:53:30.304Z,87456.00
2019-04-27T09:54:30.287Z,87232.00
2019-04-27T09:55:30.268Z,91520.00
2019-04-27T09:56:30.254Z,85760.00
2019-04-27T09:57:30.239Z,88832.00
2019-04-27T09:58:30.222Z,96864.00
2019-04-27T09:59:30.211Z,97248.00
2019-04-27T10:00:30.192Z,97632.00
2019-04-27T10:01:30.176Z,29024.00
2019-04-27T10:02:30.160Z,28736.00
2019-04-27T10:03:30.144Z,51008.00
2019-04-27T10:04:30.134Z,100640.00
2019-04-27T10:05:30.113Z,103040.00
2019-04-27T10:06:30.170Z,106304.00
2019-04-27T10:07:30.081Z,108576.00
2019-04-27T10:08:30.066Z,110112.00
2019-04-27T10:09:30.051Z,87584.00
2019-04-27T10:10:30.035Z,39104.00
2019-04-27T10:11:30.018Z,37632.00
2019-04-27T10:12:30.002Z,37696.00
2019-04-27T10:13:29.987Z,72672.00
2019-04-27T10:14:29.971Z,97952.00
2019-04-27T10:15:29.956Z,94176.00
2019-04-27T10:16:29.937Z,97216.00
2019-04-27T10:17:29.924Z,95968.00
2019-04-27T10:18:29.907Z,97344.00
2019-04-27T10:19:32.952Z,96480.00
2019-04-27T10:20:29.875Z,98400.00
2019-04-27T10:21:29.862Z,98304.00
2019-04-27T10:22:40.569Z,97696.00
2019-04-27T10:23:29.834Z,93408.00
2019-04-27T10:24:29.815Z,97536.00
2019-04-27T10:25:29.804Z,96768.00
2019-04-27T10:26:29.787Z,98048.00
2019-04-27T10:27:29.773Z,99360.00
2019-04-27T10:28:29.756Z,97280.00
2019-04-27T10:29:29.747Z,97088.00
2019-04-27T10:30:29.728Z,96288.00
2019-04-27T10:31:29.795Z,94080.00
2019-04-27T10:32:29.698Z,91424.00
2019-04-27T10:33:29.684Z,89056.00
2019-04-27T10:34:29.671Z,89504.00
2019-04-27T10:35:29.660Z,89920.00
2019-04-27T10:36:29.640Z,90688.00
2019-04-27T10:37:29.626Z,85472.00
2019-04-27T10:38:29.635Z,88960.00
2019-04-27T10:39:29.597Z,83168.00
2019-04-27T10:40:29.584Z,92000.00
2019-04-27T10:41:29.570Z,96064.00
2019-04-27T10:42:29.555Z,100000.00
2019-04-27T10:43:29.539Z,100608.00
2019-04-27T10:44:29.524Z,99456.00
2019-04-27T10:45:29.513Z,91488.00
2019-04-27T10:46:29.497Z,98208.00
2019-04-27T10:47:29.480Z,101536.00
2019-04-27T10:48:29.467Z,99136.00
2019-04-27T10:49:29.454Z,90368.00
2019-04-27T10:50:29.439Z,102560.00
2019-04-27T10:51:29.423Z,100160.00
2019-04-27T10:52:29.412Z,90880.00
2019-04-27T10:53:29.394Z,107936.00
2019-04-27T10:54:29.382Z,67104.00
2019-04-27T10:55:29.381Z,71232.00
2019-04-27T10:56:29.353Z,69728.00
2019-04-27T10:57:29.338Z,45568.00
2019-04-27T10:58:29.325Z,48992.00
2019-04-27T10:59:29.311Z,53504.00
2019-04-27T11:00:29.299Z,50656.00
2019-04-27T11:01:29.284Z,45984.00
2019-04-27T11:02:29.267Z,45280.00
2019-04-27T11:03:29.253Z,48768.00
2019-04-27T11:04:29.237Z,43648.00
2019-04-27T11:05:31.209Z,58720.00
2019-04-27T11:06:29.208Z,57504.00
2019-04-27T11:07:29.195Z,50400.00
2019-04-27T11:08:29.177Z,48224.00
2019-04-27T11:09:29.161Z,55168.00
2019-04-27T11:10:29.145Z,63456.00
2019-04-27T11:11:29.153Z,63136.00
2019-04-27T11:12:29.113Z,67040.00
2019-04-27T11:13:29.100Z,65024.00
2019-04-27T11:14:29.081Z,51936.00
2019-04-27T11:15:29.064Z,43840.00
2019-04-27T11:16:29.051Z,85216.00
2019-04-27T11:17:29.034Z,40064.00
2019-04-27T11:18:29.016Z,90176.00
2019-04-27T11:19:28.999Z,93760.00
2019-04-27T11:20:28.982Z,99552.00
2019-04-27T11:21:28.972Z,93600.00
2019-04-27T11:22:28.950Z,96768.00
2019-04-27T11:23:28.932Z,108320.00
2019-04-27T11:24:28.916Z,112992.00
2019-04-27T11:25:28.900Z,79168.00
2019-04-27T11:26:28.888Z,104352.00
2019-04-27T11:27:28.866Z,110144.00
2019-04-27T11:28:28.850Z,109184.00
2019-04-27T11:29:28.834Z,51648.00
2019-04-27T11:30:28.817Z,34336.00
2019-04-27T11:31:28.801Z,63872.00
2019-04-27T11:32:28.785Z,32032.00
2019-04-27T11:33:28.768Z,32864.00
2019-04-27T11:34:28.753Z,31936.00
2019-04-27T11:35:28.734Z,32512.00
2019-04-27T11:36:28.717Z,34848.00
2019-04-27T11:37:28.702Z,49088.00
2019-04-27T11:38:28.685Z,98560.00
2019-04-27T11:39:28.665Z,55584.00
2019-04-27T11:40:28.647Z,46624.00
2019-04-27T11:41:28.632Z,43648.00
2019-04-27T11:42:28.614Z,57856.00
2019-04-27T11:43:28.596Z,46656.00
2019-04-27T11:44:28.580Z,37984.00
2019-04-27T11:45:28.635Z,36704.00
2019-04-27T11:46:28.545Z,57984.00
2019-04-27T11:47:28.528Z,85248.00
2019-04-27T11:48:28.510Z,65472.00
2019-04-27T11:49:28.494Z,56320.00
2019-04-27T11:50:28.477Z,68096.00
2019-04-27T11:51:28.459Z,38752.00
2019-04-27T11:52:28.441Z,37152.00
2019-04-27T11:53:28.426Z,65952.00
2019-04-27T11:54:28.408Z,44864.00
2019-04-27T11:55:28.389Z,34656.00
2019-04-27T11:56:28.390Z,36288.00
2019-04-27T11:57:28.359Z,33280.00
2019-04-27T11:58:28.340Z,31744.00
2019-04-27T11:59:28.324Z,29248.00
2019-04-27T12:00:28.306Z,28224.00
2019-04-27T12:01:28.289Z,30144.00
2019-04-27T12:02:28.273Z,91200.00
2019-04-27T12:03:28.254Z,39520.00
2019-04-27T12:04:28.239Z,74688.00
2019-04-27T12:05:28.224Z,33920.00
2019-04-27T12:06:28.204Z,31232.00
2019-04-27T12:07:28.184Z,29760.00
2019-04-27T12:08:28.168Z,30144.00
2019-04-27T12:09:28.151Z,32288.00
2019-04-27T12:10:28.135Z,34944.00
2019-04-27T12:11:28.116Z,38496.00
2019-04-27T12:12:28.104Z,46592.00
2019-04-27T12:13:28.083Z,93664.00